createdAt,value
2019-02-07T00:02:33.963Z,94.50
2019-02-07T00:06:40.438Z,94.20
2019-02-07T00:10:48.248Z,93.90
2019-02-07T00:15:00.358Z,93.80
2019-02-07T00:19:09.162Z,94.00
2019-02-07T00:23:17.864Z,94.30
2019-02-07T00:27:25.645Z,94.20
2019-02-07T00:35:39.741Z,94.50
2019-02-07T00:39:47.527Z,94.60
2019-02-07T00:43:55.112Z,94.50
2019-02-07T00:48:02.127Z,93.90
2019-02-07T00:52:09.059Z,94.10
2019-02-07T00:56:15.189Z,94.00
2019-02-07T01:00:23.185Z,94.40
2019-02-07T01:04:29.586Z,94.60
2019-02-07T01:08:57.023Z,94.40
2019-02-07T01:13:03.603Z,93.90
2019-02-07T01:17:11.083Z,94.20
2019-02-07T01:21:19.070Z,94.70
2019-02-07T01:25:26.477Z,94.00
2019-02-07T01:33:41.759Z,94.00
2019-02-07T01:37:48.327Z,93.80
2019-02-07T01:41:53.998Z,93.70
2019-02-07T01:46:00.358Z,94.00
2019-02-07T01:50:09.770Z,94.20
2019-02-07T01:54:35.543Z,94.30
2019-02-07T01:58:43.103Z,94.20
2019-02-07T02:07:00.754Z,93.90
2019-02-07T02:11:07.144Z,93.90
2019-02-07T02:15:24.009Z,94.10
2019-02-07T02:19:22.795Z,93.90
2019-02-07T02:23:34.437Z,93.90
2019-02-07T02:27:41.920Z,93.70
2019-02-07T02:31:48.419Z,93.50
2019-02-07T02:35:55.081Z,93.70
2019-02-07T02:40:03.023Z,93.70
2019-02-07T02:44:13.351Z,93.80
2019-02-07T02:48:19.994Z,93.50
2019-02-07T02:52:27.700Z,93.70
2019-02-07T02:57:16.147Z,93.50
2019-02-07T03:01:30.461Z,93.60
2019-02-07T03:05:48.817Z,95.00
2019-02-07T03:10:15.207Z,93.50
2019-02-07T03:14:34.610Z,93.50
2019-02-07T03:18:55.659Z,93.60
2019-02-07T03:23:14.817Z,93.40
2019-02-07T03:27:41.883Z,93.40
2019-02-07T03:31:56.329Z,93.00
2019-02-07T03:36:15.414Z,93.30
2019-02-07T03:40:45.614Z,93.30
2019-02-07T03:45:13.176Z,93.50
2019-02-07T03:49:36.071Z,93.70
2019-02-07T03:54:01.271Z,93.80
2019-02-07T03:58:15.587Z,93.80
2019-02-07T04:02:34.208Z,93.80
2019-02-07T04:06:56.426Z,93.70
2019-02-07T04:11:15.339Z,93.70
2019-02-07T04:15:40.974Z,93.70
2019-02-07T04:20:06.182Z,93.60
2019-02-07T04:24:35.208Z,93.60
2019-02-07T04:29:01.987Z,93.70
2019-02-07T04:33:27.622Z,93.50
2019-02-07T04:37:54.217Z,93.10
2019-02-07T04:42:22.564Z,93.50
2019-02-07T04:46:47.747Z,93.60
2019-02-07T04:51:11.309Z,93.50
2019-02-07T04:55:38.034Z,93.60
2019-02-07T04:59:54.455Z,93.60
2019-02-07T05:04:20.506Z,93.30
2019-02-07T05:08:34.351Z,93.30
2019-02-07T05:17:16.159Z,93.50
2019-02-07T05:21:34.146Z,94.30
2019-02-07T05:25:58.671Z,93.50
2019-02-07T05:30:13.861Z,93.50
2019-02-07T05:34:36.554Z,93.40
2019-02-07T05:38:50.777Z,93.10
2019-02-07T05:43:20.316Z,93.20
2019-02-07T05:47:35.602Z,93.10
2019-02-07T05:52:01.659Z,92.90
2019-02-07T06:00:34.425Z,93.00
2019-02-07T06:04:48.271Z,93.00
2019-02-07T06:08:55.218Z,93.00
2019-02-07T06:13:14.064Z,92.80
2019-02-07T06:17:39.986Z,92.80
2019-02-07T06:21:55.311Z,92.80
2019-02-07T06:26:14.521Z,92.40
2019-02-07T06:30:31.068Z,92.60
2019-02-07T06:34:55.628Z,92.40
2019-02-07T06:39:14.055Z,92.20
2019-02-07T06:43:27.704Z,92.00
2019-02-07T06:52:10.527Z,91.10
2019-02-07T07:00:40.164Z,91.10
2019-02-07T07:05:05.377Z,91.10
2019-02-07T07:09:32.257Z,90.90
2019-02-07T07:13:50.087Z,91.00
2019-02-07T07:17:59.116Z,88.70
2019-02-07T07:22:25.239Z,90.30
2019-02-07T07:26:39.450Z,89.80
2019-02-07T07:31:06.385Z,88.00
2019-02-07T07:35:21.439Z,87.70
2019-02-07T07:39:39.061Z,88.40
2019-02-07T07:44:04.650Z,87.60
2019-02-07T07:48:29.951Z,87.30
2019-02-07T07:53:00.925Z,85.90
2019-02-07T08:01:40.509Z,84.30
2019-02-07T08:06:00.641Z,81.40
2019-02-07T08:10:28.157Z,83.60
2019-02-07T08:14:53.556Z,82.00
2019-02-07T08:18:59.343Z,81.30
2019-02-07T08:23:20.765Z,81.10
2019-02-07T08:27:39.702Z,81.10
2019-02-07T08:32:00.421Z,80.40
2019-02-07T08:36:19.587Z,80.10
2019-02-07T08:40:45.757Z,80.80
2019-02-07T08:45:11.769Z,79.30
2019-02-07T08:49:40.785Z,78.40
2019-02-07T08:53:59.059Z,77.90
2019-02-07T08:58:18.958Z,77.70
2019-02-07T09:02:35.212Z,76.00
2019-02-07T09:07:21.689Z,76.40
2019-02-07T09:11:40.762Z,75.70
2019-02-07T09:16:00.435Z,75.10
2019-02-07T09:20:20.403Z,74.20
2019-02-07T09:24:40.733Z,72.80
2019-02-07T09:29:00.833Z,71.90
2019-02-07T09:33:19.030Z,71.90
2019-02-07T09:37:45.167Z,71.50
2019-02-07T09:42:10.310Z,69.80
2019-02-07T09:46:19.395Z,69.20
2019-02-07T09:50:44.659Z,68.40
2019-02-07T09:55:00.315Z,67.30
2019-02-07T09:59:19.269Z,66.70
2019-02-07T10:03:45.533Z,64.70
2019-02-07T10:07:59.709Z,65.30
2019-02-07T10:12:26.265Z,63.60
2019-02-07T10:16:51.615Z,64.40
2019-02-07T10:25:39.087Z,65.10
2019-02-07T10:29:59.406Z,65.40
2019-02-07T10:34:26.254Z,63.00
2019-02-07T10:38:39.364Z,64.10
2019-02-07T10:43:00.382Z,61.70
2019-02-07T10:47:21.138Z,61.50
2019-02-07T10:51:39.235Z,62.70
2019-02-07T10:56:07.891Z,61.70
2019-02-07T11:00:36.315Z,61.60
2019-02-07T11:05:07.119Z,60.40
2019-02-07T11:09:33.583Z,59.80
2019-02-07T11:13:41.294Z,58.90
2019-02-07T11:22:20.037Z,57.30
2019-02-07T11:30:59.316Z,57.20
2019-02-07T11:35:26.315Z,56.10
2019-02-07T11:39:40.911Z,56.90
2019-02-07T11:44:06.454Z,56.80
2019-02-07T11:48:31.910Z,54.70
2019-02-07T11:57:25.113Z,53.40
2019-02-07T12:01:50.587Z,53.50
2019-02-07T12:06:16.197Z,55.40
2019-02-07T12:10:42.262Z,54.50
2019-02-07T12:15:08.097Z,54.60
2019-02-07T12:19:33.364Z,54.30
2019-02-07T12:24:00.789Z,56.60
2019-02-07T12:28:27.081Z,55.20
2019-02-07T12:32:40.554Z,55.60
2019-02-07T12:36:59.185Z,55.90
2019-02-07T12:41:26.415Z,56.30
2019-02-07T12:45:39.304Z,56.90
2019-02-07T12:50:02.451Z,56.30
2019-02-07T12:54:20.710Z,57.70
2019-02-07T12:58:44.084Z,57.40
2019-02-07T13:03:09.296Z,57.90
2019-02-07T13:07:45.196Z,58.00
2019-02-07T13:12:10.740Z,57.60
2019-02-07T13:16:36.153Z,58.00
2019-02-07T13:25:20.534Z,57.10
2019-02-07T13:29:47.019Z,56.60
2019-02-07T13:34:13.280Z,57.10
2019-02-07T13:38:39.605Z,56.80
2019-02-07T13:43:01.889Z,57.10
2019-02-07T13:47:19.080Z,56.00
2019-02-07T13:51:36.132Z,56.10
2019-02-07T13:56:01.155Z,57.00
2019-02-07T14:00:23.333Z,57.10
2019-02-07T14:04:47.342Z,56.40
2019-02-07T14:08:59.506Z,57.00
2019-02-07T14:13:24.876Z,57.50
2019-02-07T14:17:41.368Z,57.70
2019-02-07T14:21:59.511Z,58.20
2019-02-07T14:26:19.456Z,59.50
2019-02-07T14:30:45.012Z,60.90
2019-02-07T14:35:11.281Z,62.30
2019-02-07T14:44:25.360Z,63.50
2019-02-07T14:48:31.676Z,64.50
2019-02-07T14:52:40.872Z,64.70
2019-02-07T14:56:47.250Z,65.30
2019-02-07T15:00:53.541Z,65.70
2019-02-07T15:05:02.361Z,66.20
2019-02-07T15:09:24.158Z,66.70
2019-02-07T15:13:31.298Z,67.90
2019-02-07T15:17:39.508Z,67.80
2019-02-07T15:21:45.793Z,68.10
2019-02-07T15:25:52.315Z,68.00
2019-02-07T15:34:45.871Z,69.20
2019-02-07T15:38:52.221Z,69.70
2019-02-07T15:43:02.605Z,70.10
2019-02-07T15:47:11.006Z,70.10
2019-02-07T15:51:19.845Z,71.10
2019-02-07T15:55:26.753Z,70.70
2019-02-07T15:59:40.393Z,71.20
2019-02-07T16:03:56.156Z,71.60
2019-02-07T16:08:02.810Z,68.00
2019-02-07T16:12:09.163Z,72.00
2019-02-07T16:16:20.237Z,72.20
2019-02-07T16:20:28.536Z,72.40
2019-02-07T16:24:35.016Z,72.70
2019-02-07T16:28:42.165Z,73.60
2019-02-07T16:32:48.944Z,73.40
2019-02-07T16:36:55.620Z,72.80
2019-02-07T16:41:22.410Z,74.80
2019-02-07T16:45:29.818Z,73.50
2019-02-07T16:49:40.366Z,73.40
2019-02-07T16:53:46.751Z,74.20
2019-02-07T16:57:54.129Z,74.00
2019-02-07T17:02:00.791Z,73.10
2019-02-07T17:06:08.180Z,73.70
2019-02-07T17:14:27.652Z,74.00
2019-02-07T17:18:34.254Z,73.90
2019-02-07T17:22:41.545Z,74.70
2019-02-07T17:26:47.925Z,74.80
2019-02-07T17:30:54.586Z,74.80
2019-02-07T17:35:05.208Z,75.00
2019-02-07T17:39:12.041Z,75.70
2019-02-07T17:43:19.589Z,76.20
2019-02-07T17:47:26.664Z,76.10
2019-02-07T17:51:33.147Z,76.50
2019-02-07T17:55:43.445Z,76.90
2019-02-07T17:59:49.954Z,77.40
2019-02-07T18:03:59.062Z,77.50
2019-02-07T18:08:07.135Z,78.20
2019-02-07T18:12:13.801Z,78.10
2019-02-07T18:16:22.050Z,78.10
2019-02-07T18:20:28.872Z,77.70
2019-02-07T18:24:35.281Z,78.20
2019-02-07T18:33:46.094Z,78.80
2019-02-07T18:37:53.341Z,79.60
2019-02-07T18:41:59.834Z,78.80
2019-02-07T18:46:06.540Z,79.30
2019-02-07T18:50:12.161Z,79.60
2019-02-07T18:54:18.487Z,80.00
2019-02-07T18:58:24.913Z,80.40
2019-02-07T19:02:33.136Z,80.80
2019-02-07T19:06:40.619Z,80.80
2019-02-07T19:15:12.329Z,81.40
2019-02-07T19:19:18.648Z,81.00
2019-02-07T19:23:25.543Z,81.00
2019-02-07T19:27:33.393Z,81.30
2019-02-07T19:31:40.770Z,81.00
2019-02-07T19:35:55.958Z,80.20
2019-02-07T19:40:02.435Z,80.20
2019-02-07T19:44:14.471Z,80.80
2019-02-07T19:48:21.311Z,81.10
2019-02-07T19:52:28.164Z,81.60
2019-02-07T19:56:55.740Z,81.40
2019-02-07T20:01:02.159Z,81.70
2019-02-07T20:05:16.687Z,81.60
2019-02-07T20:09:43.312Z,81.60
2019-02-07T20:13:51.392Z,82.20
2019-02-07T20:17:59.934Z,82.50
2019-02-07T20:22:19.522Z,82.70
2019-02-07T20:26:17.100Z,85.10
2019-02-07T20:30:31.122Z,82.70
2019-02-07T20:34:39.004Z,83.60
2019-02-07T20:38:45.955Z,83.50
2019-02-07T20:42:52.626Z,83.20
2019-02-07T20:47:06.755Z,83.70
2019-02-07T20:51:13.162Z,83.40
2019-02-07T20:59:28.023Z,84.30
2019-02-07T21:03:35.302Z,83.80
2019-02-07T21:07:43.122Z,83.30
2019-02-07T21:11:50.631Z,83.80
2019-02-07T21:15:57.610Z,83.80
2019-02-07T21:20:07.544Z,83.80
2019-02-07T21:24:14.245Z,83.00
2019-02-07T21:28:23.717Z,82.60
2019-02-07T21:32:31.305Z,82.70
2019-02-07T21:36:39.298Z,83.40
2019-02-07T21:41:05.204Z,85.50
2019-02-07T21:45:13.161Z,83.90
2019-02-07T21:49:24.611Z,84.30
2019-02-07T21:53:29.378Z,84.30
2019-02-07T21:57:36.308Z,84.60
2019-02-07T22:01:43.497Z,85.10
2019-02-07T22:05:49.921Z,86.00
2019-02-07T22:09:59.390Z,85.80
2019-02-07T22:14:07.742Z,88.40
2019-02-07T22:18:14.403Z,86.10
2019-02-07T22:26:28.900Z,84.90
2019-02-07T22:30:35.913Z,84.40
2019-02-07T22:34:43.621Z,84.40
2019-02-07T22:38:49.975Z,84.50
2019-02-07T22:42:57.933Z,85.20
2019-02-07T22:47:04.838Z,86.70
2019-02-07T22:51:11.363Z,84.20
2019-02-07T22:55:18.303Z,83.80
2019-02-07T22:59:45.887Z,83.90
2019-02-07T23:03:54.023Z,85.50
2019-02-07T23:08:03.660Z,83.20
2019-02-07T23:12:10.540Z,82.80
2019-02-07T23:16:18.134Z,82.70
2019-02-07T23:20:43.770Z,85.20
2019-02-07T23:24:50.611Z,82.40
2019-02-07T23:28:56.914Z,83.10
2019-02-07T23:33:09.248Z,81.90
2019-02-07T23:37:15.707Z,81.90
2019-02-07T23:41:22.808Z,82.60
2019-02-07T23:45:29.102Z,81.60
2019-02-07T23:49:36.410Z,81.30
2019-02-07T23:57:49.446Z,81.40
